METAR stanice u blizini

 

LYBE - Beograd / Surčin, Srbija
Ažurirano: 29/09/2020 06:30
Slaba kiša, Pretežno oblačno
Slaba kiša, Pretežno oblačno
 Pravac vetra ZSZ
Vetar: ZSZ 7 km/h
Temperatura: 13°C
Tačka rose: 12°C
Vlažnost: 94%
Pritisak: 1013 hPa
Pregled: Light Rain
Oblaci: Mostly Cloudy
Vidljivost: 10 km
Cloud details: Mostly Cloudy 1219 m
2020/09/29 04:30 LYBE 290430Z 30004KT 9999 -RA BKN040 13/12 Q1013 NOSIG
LYBT - Beograd / Batajnica, Srbija
Ažurirano: 29/09/2020 06:30
Slaba kiša, Pretežno oblačno
Slaba kiša, Pretežno oblačno
 Pravac vetra JZ
Vetar: JZ 6 km/h
Temperatura: 13°C
Tačka rose: 13°C
Vlažnost: 100%
Pritisak: 1013 hPa
Pregled: Light Rain
Oblaci: Mostly Cloudy
Vidljivost: 10 km
Cloud details: Mostly Cloudy 1219 m
2020/09/29 04:30 LYBT 290430Z 22003KT 9999 -RA BKN040 13/13 Q1013 NOSIG
LYVR - Vršac, Srbija
Ažurirano: 29/09/2020 06:30
Padavine, Pretežno oblačno
Padavine, Pretežno oblačno
 Pravac vetra Z
Vetar: Z 7 km/h
Temperatura: 13°C
Tačka rose: 12°C
Vlažnost: 94%
Pritisak: 1013 hPa
Pregled: Padavine
Oblaci: Mostly Cloudy
Vidljivost: 5 km
Cloud details: Mostly Cloudy 610 m
2020/09/29 04:30 LYVR 290430Z 26004KT 220V310 5000 RA BKN020 13/12 Q1013
 
LYKV - Lađevci, Srbija
Ažurirano: 29/09/2020 06:30
Partly Cloudy
Partly Cloudy
 Pravac vetra calm
Vetar: Tišina
Temperatura: 11°C
Tačka rose: 11°C
Vlažnost: 100%
Pritisak: 1013 hPa
Oblaci: Partly Cloudy
Vidljivost: 7 km
2020/09/29 04:30 LYKV 290430Z 00000KT 7000 NSC 11/11 Q1013 NOSIG
LYNI - Niš, Srbija
Ažurirano: 29/09/2020 06:30
Few Clouds
Few Clouds
 Pravac vetra calm
Vetar: Tišina
Temperatura: 14°C
Tačka rose: 12°C
Vlažnost: 88%
Pritisak: 1013 hPa
Oblaci: Few Clouds
Vidljivost: 10 km
Cloud details: Few Clouds 1128 m
2020/09/29 04:30 LYNI 290430Z 00000KT 9999 FEW037 14/12 Q1013 RERA NOSIG
BKPR - Priština, Srbija
Ažurirano: 29/09/2020 07:00
Mostly Cloudy
Mostly Cloudy
 Pravac vetra varies
Vetar: varies 2 km/h
Temperatura: 12°C
Tačka rose: 9°C
Vlažnost: 82%
Pritisak: 1014 hPa
Oblaci: Mostly Cloudy
Vidljivost: 10 km
Cloud details: Few Clouds 1219 m
Mostly Cloudy 2438 m
2020/09/29 05:00 BKPR 290500Z VRB01KT 9999 FEW040 BKN080 12/09 Q1014 NOSIG
 
LHPP - Pecs / Pogany, Hungary
Ažurirano: 29/09/2020 06:15
Few Clouds
Few Clouds
 Pravac vetra SSZ
Vetar: SSZ 7 km/h
Temperatura: 9°C
Osećaj hladnoće: 8°C
Tačka rose: 8°C
Vlažnost: 94%
Pritisak: 1014 hPa
Oblaci: Few Clouds
Vidljivost: 10 km
Cloud details: Few Clouds 792 m
2020/09/29 04:15 LHPP 290415Z 33004KT 9999 FEW026 09/08 Q1014
LHUD - Szeged, Hungary
Ažurirano: 04/07/2019 01:45
NOT Current
Vedro
Vedro
 Pravac vetra S
Vetar: S 7 km/h
Temperatura: 18°C
Tačka rose: 13°C
Vlažnost: 73%
Pritisak: 1019 hPa
Pregled: Vedro
Vidljivost: greater than 10 km
2019/07/03 23:45 LHUD 032345Z 35004KT CAVOK 18/13 Q1019
LRTR - Timisoara, Romania
Ažurirano: 29/09/2020 06:30
Partly Cloudy
Partly Cloudy
 Pravac vetra Z
Vetar: Z 11 km/h
Temperatura: 12°C
Tačka rose: 12°C
Vlažnost: 100%
Pritisak: 1012 hPa
Oblaci: Partly Cloudy
Vidljivost: 6 km
2020/09/29 04:30 LRTR 290430Z 28006KT 6000 NSC 12/12 Q1012 R11/290095 TEMPO 5000 BR
 
LRCV - Craiova, Romania
Ažurirano: 29/09/2020 06:30
Magla, Oblačno
Magla, Oblačno
 Pravac vetra ZJZ
Vetar: ZJZ 11 km/h
Temperatura: 14°C
Tačka rose: 13°C
Vlažnost: 94%
Pritisak: 1010 hPa
Pregled: Magla
Oblaci: Oblačno
Vidljivost: 0 km
Cloud details: Oblačno 30 m
2020/09/29 04:30 LRCV 290430Z 25006KT 0300 R09/0450N FG VV001 14/13 Q1010
LBSF - Sofia, Bulgaria
Ažurirano: 29/09/2020 06:30
Slaba kiša, Pretežno oblačno
Slaba kiša, Pretežno oblačno
 Pravac vetra varies
Vetar: varies 4 km/h
Temperatura: 13°C
Tačka rose: 12°C
Vlažnost: 94%
Pritisak: 1013 hPa
Pregled: Light Rain
Oblaci: Mostly Cloudy
Vidljivost: 7 km
Cloud details: Few Clouds 305 m
Partly Cloudy 2195 m
Mostly Cloudy 2499 m
2020/09/29 04:30 LBSF 290430Z VRB02KT 7000 -RA FEW010 SCT072 BKN082 13/12 Q1013 TEMPO 5000 RA
LWSK - Skoplje, Makedonija
Ažurirano: 29/09/2020 06:30
Partly Cloudy
Partly Cloudy
 Pravac vetra varies
Vetar: varies 2 km/h
Temperatura: 13°C
Tačka rose: 12°C
Vlažnost: 94%
Pritisak: 1014 hPa
Oblaci: Partly Cloudy
Vidljivost: 10 km
Cloud details: Few Clouds 1219 m
Partly Cloudy 2438 m
2020/09/29 04:30 LWSK 290430Z VRB01KT 9999 FEW040 SCT080 13/12 Q1014 NOSIG
 
LYPG - Podgorica, Crna Gora
Ažurirano: 29/09/2020 06:30
Slaba kiša, Pretežno oblačno
Slaba kiša, Pretežno oblačno
 Pravac vetra S
Vetar: S 9 km/h
Temperatura: 14°C
Tačka rose: 14°C
Vlažnost: 100%
Pritisak: 1014 hPa
Pregled: Light Rain
Oblaci: Mostly Cloudy
Vidljivost: 10 km
Cloud details: Few Clouds 305 m
Partly Cloudy 701 m
Mostly Cloudy 1006 m
2020/09/29 04:30 LYPG 290430Z 36005KT 340V050 9999 -RA FEW010 SCT023 BKN033 14/14 Q1014 NOSIG
LQSA - Sarajevo, Bosna i Hercegovina
Ažurirano: 29/09/2020 06:30
Partly Cloudy
Partly Cloudy
 Pravac vetra varies
Vetar: varies 2 km/h
Temperatura: 8°C
Tačka rose: 8°C
Vlažnost: 100%
Pritisak: 1014 hPa
Oblaci: Partly Cloudy
Vidljivost: 7 km
Cloud details: Few Clouds 305 m
Partly Cloudy 1829 m
2020/09/29 04:30 LQSA 290430Z VRB01KT 7000 FEW010 SCT060 08/08 Q1014 NOSIG
LDOS - Osijek, Hrvatksa
Ažurirano: 29/09/2020 06:30
Few Clouds
Few Clouds
 Pravac vetra ZSZ
Vetar: ZSZ 11 km/h
Temperatura: 11°C
Tačka rose: 11°C
Vlažnost: 100%
Pritisak: 1014 hPa
Oblaci: Few Clouds
Vidljivost: 7 km
Cloud details: Few Clouds 1433 m
2020/09/29 04:30 LDOS 290430Z 29006KT 7000 FEW047 11/11 Q1014